sensor_id;sensor_type;location;lat;lon;timestamp;P1;durP1;ratioP1;P2;durP2;ratioP2
40058;SDS011;25763;49.972;8.568;2022-12-10T00:01:21;9.80;;;9.10;;
40058;SDS011;25763;49.972;8.568;2022-12-10T00:03:47;9.18;;;8.48;;
40058;SDS011;25763;49.972;8.568;2022-12-10T00:06:14;11.50;;;10.40;;
40058;SDS011;25763;49.972;8.568;2022-12-10T00:08:41;9.02;;;8.32;;
40058;SDS011;25763;49.972;8.568;2022-12-10T00:11:08;8.18;;;7.53;;
40058;SDS011;25763;49.972;8.568;2022-12-10T00:13:35;11.45;;;10.48;;
40058;SDS011;25763;49.972;8.568;2022-12-10T00:16:01;10.98;;;9.93;;
40058;SDS011;25763;49.972;8.568;2022-12-10T00:18:28;10.02;;;9.15;;
40058;SDS011;25763;49.972;8.568;2022-12-10T00:20:54;12.98;;;9.27;;
40058;SDS011;25763;49.972;8.568;2022-12-10T00:23:19;9.07;;;8.38;;
40058;SDS011;25763;49.972;8.568;2022-12-10T00:25:44;9.80;;;9.10;;
40058;SDS011;25763;49.972;8.568;2022-12-10T00:28:10;9.88;;;9.18;;
40058;SDS011;25763;49.972;8.568;2022-12-10T00:30:35;10.38;;;9.57;;
40058;SDS011;25763;49.972;8.568;2022-12-10T00:33:01;9.35;;;8.57;;
40058;SDS011;25763;49.972;8.568;2022-12-10T00:35:26;9.63;;;8.82;;
40058;SDS011;25763;49.972;8.568;2022-12-10T00:37:52;8.40;;;7.80;;
40058;SDS011;25763;49.972;8.568;2022-12-10T00:40:17;8.95;;;8.35;;
40058;SDS011;25763;49.972;8.568;2022-12-10T00:42:43;8.65;;;8.02;;
40058;SDS011;25763;49.972;8.568;2022-12-10T00:45:08;9.10;;;8.50;;
40058;SDS011;25763;49.972;8.568;2022-12-10T00:47:34;10.25;;;9.38;;
40058;SDS011;25763;49.972;8.568;2022-12-10T00:49:59;10.30;;;9.50;;
40058;SDS011;25763;49.972;8.568;2022-12-10T00:52:24;9.43;;;8.68;;
40058;SDS011;25763;49.972;8.568;2022-12-10T00:54:50;10.15;;;9.20;;
40058;SDS011;25763;49.972;8.568;2022-12-10T00:57:15;9.57;;;8.70;;
40058;SDS011;25763;49.972;8.568;2022-12-10T00:59:41;10.25;;;9.45;;
40058;SDS011;25763;49.972;8.568;2022-12-10T01:02:06;11.40;;;8.50;;
40058;SDS011;25763;49.972;8.568;2022-12-10T01:04:32;10.48;;;8.45;;
40058;SDS011;25763;49.972;8.568;2022-12-10T01:06:57;9.18;;;8.45;;
40058;SDS011;25763;49.972;8.568;2022-12-10T01:09:26;9.23;;;8.52;;
40058;SDS011;25763;49.972;8.568;2022-12-10T01:11:53;8.68;;;8.07;;
40058;SDS011;25763;49.972;8.568;2022-12-10T01:14:24;10.38;;;9.40;;
40058;SDS011;25763;49.972;8.568;2022-12-10T01:16:55;8.02;;;7.43;;
40058;SDS011;25763;49.972;8.568;2022-12-10T01:19:22;11.43;;;10.32;;
40058;SDS011;25763;49.972;8.568;2022-12-10T01:21:51;10.55;;;9.70;;
40058;SDS011;25763;49.972;8.568;2022-12-10T01:24:18;9.45;;;8.68;;
40058;SDS011;25763;49.972;8.568;2022-12-10T01:26:47;9.40;;;8.70;;
40058;SDS011;25763;49.972;8.568;2022-12-10T01:29:12;7.93;;;7.38;;
40058;SDS011;25763;49.972;8.568;2022-12-10T01:31:38;8.07;;;7.47;;
40058;SDS011;25763;49.972;8.568;2022-12-10T01:34:04;9.50;;;8.80;;
40058;SDS011;25763;49.972;8.568;2022-12-10T01:36:35;11.30;;;10.30;;
40058;SDS011;25763;49.972;8.568;2022-12-10T01:39:02;9.38;;;8.57;;
40058;SDS011;25763;49.972;8.568;2022-12-10T01:41:38;9.20;;;8.50;;
40058;SDS011;25763;49.972;8.568;2022-12-10T01:46:49;9.57;;;8.85;;
40058;SDS011;25763;49.972;8.568;2022-12-10T01:49:17;10.18;;;9.18;;
40058;SDS011;25763;49.972;8.568;2022-12-10T01:51:49;8.70;;;8.10;;
40058;SDS011;25763;49.972;8.568;2022-12-10T01:54:18;9.10;;;8.40;;
40058;SDS011;25763;49.972;8.568;2022-12-10T01:57:02;9.60;;;8.93;;
40058;SDS011;25763;49.972;8.568;2022-12-10T02:12:49;8.02;;;7.43;;
40058;SDS011;25763;49.972;8.568;2022-12-10T02:15:23;8.70;;;8.10;;
40058;SDS011;25763;49.972;8.568;2022-12-10T02:17:56;7.72;;;7.22;;
40058;SDS011;25763;49.972;8.568;2022-12-10T02:23:06;9.60;;;8.80;;
40058;SDS011;25763;49.972;8.568;2022-12-10T02:25:40;9.88;;;9.05;;
40058;SDS011;25763;49.972;8.568;2022-12-10T02:33:08;8.48;;;7.70;;
40058;SDS011;25763;49.972;8.568;2022-12-10T02:35:36;8.38;;;7.85;;
40058;SDS011;25763;49.972;8.568;2022-12-10T02:38:07;9.50;;;8.80;;
40058;SDS011;25763;49.972;8.568;2022-12-10T02:40:37;8.65;;;8.05;;
40058;SDS011;25763;49.972;8.568;2022-12-10T02:43:07;8.60;;;8.00;;
40058;SDS011;25763;49.972;8.568;2022-12-10T02:45:33;8.88;;;8.23;;
40058;SDS011;25763;49.972;8.568;2022-12-10T02:48:00;10.27;;;8.57;;
40058;SDS011;25763;49.972;8.568;2022-12-10T02:50:28;8.73;;;8.13;;
40058;SDS011;25763;49.972;8.568;2022-12-10T02:52:53;9.50;;;8.70;;
40058;SDS011;25763;49.972;8.568;2022-12-10T02:55:19;8.35;;;7.75;;
40058;SDS011;25763;49.972;8.568;2022-12-10T03:05:40;8.82;;;8.13;;
40058;SDS011;25763;49.972;8.568;2022-12-10T03:10:56;9.73;;;8.93;;
40058;SDS011;25763;49.972;8.568;2022-12-10T03:16:24;8.40;;;7.80;;
40058;SDS011;25763;49.972;8.568;2022-12-10T03:18:56;8.27;;;7.57;;
40058;SDS011;25763;49.972;8.568;2022-12-10T03:21:23;8.45;;;7.82;;
40058;SDS011;25763;49.972;8.568;2022-12-10T03:23:51;9.60;;;8.65;;
40058;SDS011;25763;49.972;8.568;2022-12-10T03:26:16;7.90;;;7.40;;
40058;SDS011;25763;49.972;8.568;2022-12-10T03:28:50;8.68;;;7.97;;
40058;SDS011;25763;49.972;8.568;2022-12-10T03:31:17;7.90;;;7.30;;
40058;SDS011;25763;49.972;8.568;2022-12-10T03:33:44;8.93;;;8.23;;
40058;SDS011;25763;49.972;8.568;2022-12-10T03:36:11;9.00;;;8.30;;
40058;SDS011;25763;49.972;8.568;2022-12-10T03:38:38;8.38;;;7.78;;
40058;SDS011;25763;49.972;8.568;2022-12-10T03:41:04;7.68;;;7.18;;
40058;SDS011;25763;49.972;8.568;2022-12-10T03:43:30;9.18;;;8.50;;
40058;SDS011;25763;49.972;8.568;2022-12-10T03:45:55;8.35;;;7.75;;
40058;SDS011;25763;49.972;8.568;2022-12-10T03:48:21;8.57;;;7.97;;
40058;SDS011;25763;49.972;8.568;2022-12-10T03:50:46;8.65;;;7.97;;
40058;SDS011;25763;49.972;8.568;2022-12-10T03:53:11;7.78;;;7.18;;
40058;SDS011;25763;49.972;8.568;2022-12-10T03:55:37;8.55;;;7.93;;
40058;SDS011;25763;49.972;8.568;2022-12-10T03:58:03;8.93;;;8.25;;
40058;SDS011;25763;49.972;8.568;2022-12-10T04:00:28;8.13;;;7.50;;
40058;SDS011;25763;49.972;8.568;2022-12-10T04:02:53;8.38;;;7.68;;
40058;SDS011;25763;49.972;8.568;2022-12-10T04:05:19;9.23;;;8.30;;
40058;SDS011;25763;49.972;8.568;2022-12-10T04:07:44;8.38;;;7.78;;
40058;SDS011;25763;49.972;8.568;2022-12-10T04:10:09;8.25;;;7.63;;
40058;SDS011;25763;49.972;8.568;2022-12-10T04:12:35;8.50;;;7.90;;
40058;SDS011;25763;49.972;8.568;2022-12-10T04:15:00;9.20;;;8.50;;
40058;SDS011;25763;49.972;8.568;2022-12-10T04:17:44;8.98;;;8.35;;
40058;SDS011;25763;49.972;8.568;2022-12-10T04:20:09;8.88;;;8.07;;
40058;SDS011;25763;49.972;8.568;2022-12-10T04:22:55;8.32;;;7.72;;
40058;SDS011;25763;49.972;8.568;2022-12-10T04:25:38;8.50;;;7.80;;
40058;SDS011;25763;49.972;8.568;2022-12-10T04:28:22;7.75;;;7.25;;
40058;SDS011;25763;49.972;8.568;2022-12-10T04:30:48;9.05;;;8.38;;
40058;SDS011;25763;49.972;8.568;2022-12-10T04:33:13;8.52;;;7.93;;
40058;SDS011;25763;49.972;8.568;2022-12-10T04:35:38;8.88;;;8.27;;
40058;SDS011;25763;49.972;8.568;2022-12-10T04:38:03;7.57;;;7.07;;
40058;SDS011;25763;49.972;8.568;2022-12-10T04:40:29;9.43;;;8.50;;
40058;SDS011;25763;49.972;8.568;2022-12-10T04:42:54;8.75;;;8.10;;
40058;SDS011;25763;49.972;8.568;2022-12-10T04:45:19;8.13;;;7.50;;
40058;SDS011;25763;49.972;8.568;2022-12-10T04:47:45;8.75;;;8.15;;
40058;SDS011;25763;49.972;8.568;2022-12-10T04:50:10;8.88;;;8.02;;
40058;SDS011;25763;49.972;8.568;2022-12-10T04:52:35;8.27;;;7.68;;
40058;SDS011;25763;49.972;8.568;2022-12-10T04:55:01;8.75;;;8.13;;
40058;SDS011;25763;49.972;8.568;2022-12-10T04:57:26;8.30;;;7.65;;
40058;SDS011;25763;49.972;8.568;2022-12-10T04:59:51;8.80;;;8.20;;
40058;SDS011;25763;49.972;8.568;2022-12-10T05:02:17;9.43;;;8.73;;
40058;SDS011;25763;49.972;8.568;2022-12-10T05:04:43;9.55;;;8.85;;
40058;SDS011;25763;49.972;8.568;2022-12-10T05:07:08;8.27;;;7.68;;
40058;SDS011;25763;49.972;8.568;2022-12-10T05:09:33;9.00;;;7.90;;
40058;SDS011;25763;49.972;8.568;2022-12-10T05:11:59;8.15;;;7.57;;
40058;SDS011;25763;49.972;8.568;2022-12-10T05:14:24;7.50;;;7.00;;
40058;SDS011;25763;49.972;8.568;2022-12-10T05:16:50;8.32;;;7.72;;
40058;SDS011;25763;49.972;8.568;2022-12-10T05:19:16;8.48;;;7.78;;
40058;SDS011;25763;49.972;8.568;2022-12-10T05:21:44;8.98;;;8.30;;
40058;SDS011;25763;49.972;8.568;2022-12-10T05:24:28;8.50;;;7.90;;
40058;SDS011;25763;49.972;8.568;2022-12-10T05:26:53;8.75;;;8.15;;
40058;SDS011;25763;49.972;8.568;2022-12-10T05:29:19;7.60;;;7.10;;
40058;SDS011;25763;49.972;8.568;2022-12-10T05:31:44;7.53;;;7.03;;
40058;SDS011;25763;49.972;8.568;2022-12-10T05:34:10;8.02;;;7.38;;
40058;SDS011;25763;49.972;8.568;2022-12-10T05:36:36;8.75;;;8.13;;
40058;SDS011;25763;49.972;8.568;2022-12-10T05:39:02;9.05;;;8.38;;
40058;SDS011;25763;49.972;8.568;2022-12-10T05:41:29;8.30;;;7.70;;
40058;SDS011;25763;49.972;8.568;2022-12-10T05:43:56;8.63;;;7.93;;
40058;SDS011;25763;49.972;8.568;2022-12-10T05:46:24;18.38;;;9.00;;
40058;SDS011;25763;49.972;8.568;2022-12-10T05:48:52;8.98;;;8.38;;
40058;SDS011;25763;49.972;8.568;2022-12-10T05:51:19;7.68;;;7.13;;
40058;SDS011;25763;49.972;8.568;2022-12-10T05:53:50;8.05;;;7.45;;
40058;SDS011;25763;49.972;8.568;2022-12-10T05:56:17;8.73;;;8.13;;
40058;SDS011;25763;49.972;8.568;2022-12-10T05:58:44;9.05;;;8.35;;
40058;SDS011;25763;49.972;8.568;2022-12-10T06:01:12;9.27;;;8.57;;
40058;SDS011;25763;49.972;8.568;2022-12-10T06:03:39;8.98;;;8.18;;
40058;SDS011;25763;49.972;8.568;2022-12-10T06:06:05;8.05;;;7.45;;
40058;SDS011;25763;49.972;8.568;2022-12-10T06:08:31;7.93;;;7.43;;
40058;SDS011;25763;49.972;8.568;2022-12-10T06:11:04;7.80;;;7.30;;
40058;SDS011;25763;49.972;8.568;2022-12-10T06:13:31;9.20;;;8.50;;
40058;SDS011;25763;49.972;8.568;2022-12-10T06:15:56;8.80;;;8.18;;
40058;SDS011;25763;49.972;8.568;2022-12-10T06:18:21;8.40;;;7.78;;
40058;SDS011;25763;49.972;8.568;2022-12-10T06:20:47;9.13;;;8.52;;
40058;SDS011;25763;49.972;8.568;2022-12-10T06:23:12;8.35;;;7.78;;
40058;SDS011;25763;49.972;8.568;2022-12-10T06:25:38;8.98;;;8.27;;
40058;SDS011;25763;49.972;8.568;2022-12-10T06:28:04;9.25;;;8.45;;
40058;SDS011;25763;49.972;8.568;2022-12-10T06:30:30;8.35;;;7.55;;
40058;SDS011;25763;49.972;8.568;2022-12-10T06:32:56;9.30;;;8.45;;
40058;SDS011;25763;49.972;8.568;2022-12-10T06:35:21;9.07;;;8.32;;
40058;SDS011;25763;49.972;8.568;2022-12-10T06:37:46;8.10;;;7.50;;
40058;SDS011;25763;49.972;8.568;2022-12-10T06:40:13;8.85;;;8.25;;
40058;SDS011;25763;49.972;8.568;2022-12-10T06:42:39;9.48;;;8.73;;
40058;SDS011;25763;49.972;8.568;2022-12-10T06:45:04;9.05;;;8.45;;
40058;SDS011;25763;49.972;8.568;2022-12-10T06:47:30;9.07;;;8.48;;
40058;SDS011;25763;49.972;8.568;2022-12-10T06:49:55;8.35;;;7.75;;
40058;SDS011;25763;49.972;8.568;2022-12-10T06:52:20;8.90;;;8.23;;
40058;SDS011;25763;49.972;8.568;2022-12-10T06:54:46;8.90;;;8.30;;
40058;SDS011;25763;49.972;8.568;2022-12-10T06:57:11;10.43;;;9.05;;
40058;SDS011;25763;49.972;8.568;2022-12-10T06:59:36;8.80;;;8.20;;
40058;SDS011;25763;49.972;8.568;2022-12-10T07:02:02;7.75;;;7.20;;
40058;SDS011;25763;49.972;8.568;2022-12-10T07:04:27;9.18;;;8.48;;
40058;SDS011;25763;49.972;8.568;2022-12-10T07:06:53;8.38;;;7.78;;
40058;SDS011;25763;49.972;8.568;2022-12-10T07:09:18;8.15;;;7.60;;
40058;SDS011;25763;49.972;8.568;2022-12-10T07:11:43;8.00;;;7.50;;
40058;SDS011;25763;49.972;8.568;2022-12-10T07:14:13;7.65;;;7.15;;
40058;SDS011;25763;49.972;8.568;2022-12-10T07:16:40;10.25;;;9.23;;
40058;SDS011;25763;49.972;8.568;2022-12-10T07:19:06;7.97;;;7.40;;
40058;SDS011;25763;49.972;8.568;2022-12-10T07:21:34;8.10;;;7.50;;
40058;SDS011;25763;49.972;8.568;2022-12-10T07:24:04;9.45;;;8.65;;
40058;SDS011;25763;49.972;8.568;2022-12-10T07:26:33;9.23;;;8.55;;
40058;SDS011;25763;49.972;8.568;2022-12-10T07:29:01;14.15;;;10.02;;
40058;SDS011;25763;49.972;8.568;2022-12-10T07:31:28;10.82;;;9.90;;
40058;SDS011;25763;49.972;8.568;2022-12-10T07:33:53;9.90;;;9.10;;
40058;SDS011;25763;49.972;8.568;2022-12-10T07:36:22;8.43;;;7.82;;
40058;SDS011;25763;49.972;8.568;2022-12-10T07:38:48;8.98;;;8.35;;
40058;SDS011;25763;49.972;8.568;2022-12-10T07:41:14;9.13;;;8.52;;
40058;SDS011;25763;49.972;8.568;2022-12-10T07:43:41;9.32;;;8.52;;
40058;SDS011;25763;49.972;8.568;2022-12-10T07:46:11;12.60;;;11.57;;
40058;SDS011;25763;49.972;8.568;2022-12-10T07:48:39;24.38;;;21.83;;
40058;SDS011;25763;49.972;8.568;2022-12-10T07:51:05;15.90;;;14.63;;
40058;SDS011;25763;49.972;8.568;2022-12-10T07:53:31;9.75;;;8.95;;
40058;SDS011;25763;49.972;8.568;2022-12-10T07:55:57;9.68;;;8.98;;
40058;SDS011;25763;49.972;8.568;2022-12-10T07:58:22;9.07;;;8.38;;
40058;SDS011;25763;49.972;8.568;2022-12-10T08:00:47;9.18;;;8.40;;
40058;SDS011;25763;49.972;8.568;2022-12-10T08:03:13;9.18;;;8.57;;
40058;SDS011;25763;49.972;8.568;2022-12-10T08:05:38;9.18;;;8.48;;
40058;SDS011;25763;49.972;8.568;2022-12-10T08:08:04;8.93;;;8.13;;
40058;SDS011;25763;49.972;8.568;2022-12-10T08:10:29;8.15;;;7.55;;
40058;SDS011;25763;49.972;8.568;2022-12-10T08:12:55;9.55;;;8.85;;
40058;SDS011;25763;49.972;8.568;2022-12-10T08:15:20;9.10;;;8.40;;
40058;SDS011;25763;49.972;8.568;2022-12-10T08:17:46;8.43;;;7.82;;
40058;SDS011;25763;49.972;8.568;2022-12-10T08:20:11;8.48;;;7.88;;
40058;SDS011;25763;49.972;8.568;2022-12-10T08:22:36;9.00;;;8.40;;
40058;SDS011;25763;49.972;8.568;2022-12-10T08:25:02;7.70;;;7.20;;
40058;SDS011;25763;49.972;8.568;2022-12-10T08:27:28;8.80;;;8.15;;
40058;SDS011;25763;49.972;8.568;2022-12-10T08:29:53;10.48;;;9.57;;
40058;SDS011;25763;49.972;8.568;2022-12-10T08:32:18;8.95;;;8.35;;
40058;SDS011;25763;49.972;8.568;2022-12-10T08:34:44;9.00;;;8.27;;
40058;SDS011;25763;49.972;8.568;2022-12-10T08:37:09;9.55;;;8.80;;
40058;SDS011;25763;49.972;8.568;2022-12-10T08:39:35;8.90;;;8.20;;
40058;SDS011;25763;49.972;8.568;2022-12-10T08:42:00;8.15;;;7.55;;
40058;SDS011;25763;49.972;8.568;2022-12-10T08:44:26;9.30;;;8.65;;
40058;SDS011;25763;49.972;8.568;2022-12-10T08:46:51;9.05;;;8.43;;
40058;SDS011;25763;49.972;8.568;2022-12-10T08:49:16;9.23;;;8.52;;
40058;SDS011;25763;49.972;8.568;2022-12-10T08:51:42;9.15;;;8.45;;
40058;SDS011;25763;49.972;8.568;2022-12-10T08:54:07;10.23;;;9.45;;
40058;SDS011;25763;49.972;8.568;2022-12-10T08:56:32;8.07;;;7.50;;
40058;SDS011;25763;49.972;8.568;2022-12-10T08:58:58;8.93;;;8.30;;
40058;SDS011;25763;49.972;8.568;2022-12-10T09:01:23;7.55;;;7.03;;
40058;SDS011;25763;49.972;8.568;2022-12-10T09:03:48;8.40;;;7.80;;
40058;SDS011;25763;49.972;8.568;2022-12-10T09:06:16;8.88;;;8.18;;
40058;SDS011;25763;49.972;8.568;2022-12-10T09:08:43;9.55;;;8.63;;
40058;SDS011;25763;49.972;8.568;2022-12-10T09:11:11;8.23;;;7.63;;
40058;SDS011;25763;49.972;8.568;2022-12-10T09:14:03;9.80;;;9.02;;
40058;SDS011;25763;49.972;8.568;2022-12-10T09:16:29;7.95;;;7.45;;
40058;SDS011;25763;49.972;8.568;2022-12-10T09:18:56;8.15;;;7.55;;
40058;SDS011;25763;49.972;8.568;2022-12-10T09:21:22;8.82;;;8.15;;
40058;SDS011;25763;49.972;8.568;2022-12-10T09:23:49;8.32;;;7.68;;
40058;SDS011;25763;49.972;8.568;2022-12-10T09:26:15;8.85;;;8.20;;
40058;SDS011;25763;49.972;8.568;2022-12-10T09:28:41;8.95;;;8.25;;
40058;SDS011;25763;49.972;8.568;2022-12-10T09:31:07;9.57;;;8.82;;
40058;SDS011;25763;49.972;8.568;2022-12-10T09:33:33;8.65;;;8.05;;
40058;SDS011;25763;49.972;8.568;2022-12-10T09:35:59;8.98;;;8.38;;
40058;SDS011;25763;49.972;8.568;2022-12-10T09:38:26;10.00;;;9.02;;
40058;SDS011;25763;49.972;8.568;2022-12-10T09:40:59;8.38;;;7.78;;
40058;SDS011;25763;49.972;8.568;2022-12-10T09:48:32;10.23;;;8.85;;
40058;SDS011;25763;49.972;8.568;2022-12-10T09:51:22;9.25;;;8.63;;
40058;SDS011;25763;49.972;8.568;2022-12-10T09:53:51;9.02;;;8.32;;
40058;SDS011;25763;49.972;8.568;2022-12-10T09:56:24;8.77;;;8.18;;
40058;SDS011;25763;49.972;8.568;2022-12-10T10:01:20;8.15;;;7.65;;
40058;SDS011;25763;49.972;8.568;2022-12-10T10:03:49;10.18;;;9.32;;
40058;SDS011;25763;49.972;8.568;2022-12-10T10:06:15;8.85;;;8.15;;
40058;SDS011;25763;49.972;8.568;2022-12-10T10:08:46;8.38;;;7.78;;
40058;SDS011;25763;49.972;8.568;2022-12-10T10:11:24;10.50;;;8.30;;
40058;SDS011;25763;49.972;8.568;2022-12-10T10:14:00;9.27;;;8.50;;
40058;SDS011;25763;49.972;8.568;2022-12-10T10:16:33;9.45;;;8.75;;
40058;SDS011;25763;49.972;8.568;2022-12-10T10:19:12;8.32;;;7.72;;
40058;SDS011;25763;49.972;8.568;2022-12-10T10:21:39;8.82;;;8.18;;
40058;SDS011;25763;49.972;8.568;2022-12-10T10:24:07;9.07;;;8.48;;
40058;SDS011;25763;49.972;8.568;2022-12-10T10:26:38;9.13;;;8.50;;
40058;SDS011;25763;49.972;8.568;2022-12-10T10:29:05;9.32;;;8.60;;
40058;SDS011;25763;49.972;8.568;2022-12-10T10:31:33;9.32;;;8.63;;
40058;SDS011;25763;49.972;8.568;2022-12-10T10:34:01;9.10;;;8.40;;
40058;SDS011;25763;49.972;8.568;2022-12-10T10:36:29;9.90;;;9.10;;
40058;SDS011;25763;49.972;8.568;2022-12-10T10:39:07;9.63;;;8.93;;
40058;SDS011;25763;49.972;8.568;2022-12-10T10:41:35;9.10;;;8.50;;
40058;SDS011;25763;49.972;8.568;2022-12-10T10:44:05;9.35;;;8.52;;
40058;SDS011;25763;49.972;8.568;2022-12-10T10:46:40;9.27;;;8.65;;
40058;SDS011;25763;49.972;8.568;2022-12-10T10:49:26;10.25;;;9.55;;
40058;SDS011;25763;49.972;8.568;2022-12-10T10:51:59;10.80;;;10.07;;
40058;SDS011;25763;49.972;8.568;2022-12-10T10:54:41;10.27;;;9.57;;
40058;SDS011;25763;49.972;8.568;2022-12-10T10:57:11;10.27;;;9.57;;
40058;SDS011;25763;49.972;8.568;2022-12-10T10:59:40;10.48;;;9.77;;
40058;SDS011;25763;49.972;8.568;2022-12-10T11:05:24;10.17;;;9.47;;
40058;SDS011;25763;49.972;8.568;2022-12-10T11:08:01;12.52;;;11.63;;
40058;SDS011;25763;49.972;8.568;2022-12-10T11:10:28;11.30;;;10.50;;
40058;SDS011;25763;49.972;8.568;2022-12-10T11:17:55;11.60;;;10.80;;
40058;SDS011;25763;49.972;8.568;2022-12-10T11:20:22;10.20;;;9.52;;
40058;SDS011;25763;49.972;8.568;2022-12-10T11:22:57;11.43;;;10.73;;
40058;SDS011;25763;49.972;8.568;2022-12-10T11:28:07;11.40;;;10.60;;
40058;SDS011;25763;49.972;8.568;2022-12-10T11:30:53;12.18;;;11.27;;
40058;SDS011;25763;49.972;8.568;2022-12-10T11:36:22;12.07;;;11.25;;
40058;SDS011;25763;49.972;8.568;2022-12-10T11:47:13;12.45;;;11.57;;
40058;SDS011;25763;49.972;8.568;2022-12-10T11:50:06;11.15;;;10.45;;
40058;SDS011;25763;49.972;8.568;2022-12-10T12:01:19;11.80;;;10.95;;
40058;SDS011;25763;49.972;8.568;2022-12-10T12:14:50;11.00;;;10.30;;
40058;SDS011;25763;49.972;8.568;2022-12-10T12:17:21;11.60;;;10.85;;
40058;SDS011;25763;49.972;8.568;2022-12-10T12:20:05;12.45;;;11.63;;
40058;SDS011;25763;49.972;8.568;2022-12-10T12:22:50;11.68;;;10.88;;
40058;SDS011;25763;49.972;8.568;2022-12-10T12:25:22;12.27;;;11.38;;
40058;SDS011;25763;49.972;8.568;2022-12-10T12:27:53;12.20;;;11.30;;
40058;SDS011;25763;49.972;8.568;2022-12-10T12:30:24;11.50;;;10.57;;
40058;SDS011;25763;49.972;8.568;2022-12-10T12:32:58;12.38;;;11.55;;
40058;SDS011;25763;49.972;8.568;2022-12-10T12:35:46;12.70;;;11.90;;
40058;SDS011;25763;49.972;8.568;2022-12-10T12:41:03;14.52;;;11.93;;
40058;SDS011;25763;49.972;8.568;2022-12-10T12:46:00;11.63;;;10.93;;
40058;SDS011;25763;49.972;8.568;2022-12-10T12:48:32;12.45;;;11.57;;
40058;SDS011;25763;49.972;8.568;2022-12-10T12:51:05;11.40;;;10.60;;
40058;SDS011;25763;49.972;8.568;2022-12-10T12:53:39;13.38;;;12.50;;
40058;SDS011;25763;49.972;8.568;2022-12-10T13:04:15;11.85;;;11.15;;
40058;SDS011;25763;49.972;8.568;2022-12-10T13:06:41;12.27;;;11.38;;
40058;SDS011;25763;49.972;8.568;2022-12-10T13:42:56;13.95;;;12.95;;
40058;SDS011;25763;49.972;8.568;2022-12-10T13:45:42;12.98;;;12.07;;
40058;SDS011;25763;49.972;8.568;2022-12-10T13:54:11;12.43;;;11.52;;
40058;SDS011;25763;49.972;8.568;2022-12-10T13:56:38;13.38;;;12.40;;
40058;SDS011;25763;49.972;8.568;2022-12-10T14:02:22;13.02;;;12.02;;
40058;SDS011;25763;49.972;8.568;2022-12-10T14:05:00;11.80;;;10.65;;
40058;SDS011;25763;49.972;8.568;2022-12-10T14:07:34;11.30;;;10.60;;
40058;SDS011;25763;49.972;8.568;2022-12-10T14:10:01;13.00;;;12.10;;
40058;SDS011;25763;49.972;8.568;2022-12-10T14:12:28;11.85;;;11.05;;
40058;SDS011;25763;49.972;8.568;2022-12-10T14:15:00;11.43;;;10.68;;
40058;SDS011;25763;49.972;8.568;2022-12-10T14:17:39;12.57;;;11.77;;
40058;SDS011;25763;49.972;8.568;2022-12-10T14:20:07;12.75;;;11.90;;
40058;SDS011;25763;49.972;8.568;2022-12-10T14:22:39;11.65;;;10.95;;
40058;SDS011;25763;49.972;8.568;2022-12-10T14:25:11;11.75;;;11.02;;
40058;SDS011;25763;49.972;8.568;2022-12-10T14:27:39;11.40;;;10.70;;
40058;SDS011;25763;49.972;8.568;2022-12-10T14:30:06;11.20;;;10.48;;
40058;SDS011;25763;49.972;8.568;2022-12-10T14:32:43;12.00;;;11.20;;
40058;SDS011;25763;49.972;8.568;2022-12-10T14:35:14;12.32;;;11.52;;
40058;SDS011;25763;49.972;8.568;2022-12-10T14:40:22;11.30;;;10.50;;
40058;SDS011;25763;49.972;8.568;2022-12-10T14:42:50;10.93;;;10.23;;
40058;SDS011;25763;49.972;8.568;2022-12-10T14:45:20;12.07;;;11.27;;
40058;SDS011;25763;49.972;8.568;2022-12-10T14:47:45;12.27;;;11.38;;
40058;SDS011;25763;49.972;8.568;2022-12-10T14:50:13;12.20;;;11.40;;
40058;SDS011;25763;49.972;8.568;2022-12-10T14:52:42;13.25;;;12.45;;
40058;SDS011;25763;49.972;8.568;2022-12-10T14:55:16;11.63;;;10.90;;
40058;SDS011;25763;49.972;8.568;2022-12-10T14:57:44;14.45;;;13.52;;
40058;SDS011;25763;49.972;8.568;2022-12-10T15:00:15;11.77;;;11.00;;
40058;SDS011;25763;49.972;8.568;2022-12-10T15:02:53;12.13;;;11.43;;
40058;SDS011;25763;49.972;8.568;2022-12-10T15:05:24;12.95;;;12.05;;
40058;SDS011;25763;49.972;8.568;2022-12-10T15:07:53;13.68;;;12.73;;
40058;SDS011;25763;49.972;8.568;2022-12-10T15:10:28;13.18;;;12.27;;
40058;SDS011;25763;49.972;8.568;2022-12-10T15:12:59;11.25;;;10.45;;
40058;SDS011;25763;49.972;8.568;2022-12-10T15:15:35;12.90;;;12.10;;
40058;SDS011;25763;49.972;8.568;2022-12-10T15:28:31;11.93;;;11.00;;
40058;SDS011;25763;49.972;8.568;2022-12-10T15:33:50;10.07;;;9.38;;
40058;SDS011;25763;49.972;8.568;2022-12-10T15:39:15;10.27;;;9.60;;
40058;SDS011;25763;49.972;8.568;2022-12-10T15:47:00;10.05;;;9.45;;
40058;SDS011;25763;49.972;8.568;2022-12-10T15:49:43;9.63;;;9.00;;
40058;SDS011;25763;49.972;8.568;2022-12-10T15:52:13;9.70;;;9.10;;
40058;SDS011;25763;49.972;8.568;2022-12-10T15:54:43;9.85;;;9.20;;
40058;SDS011;25763;49.972;8.568;2022-12-10T15:59:56;10.05;;;9.38;;
40058;SDS011;25763;49.972;8.568;2022-12-10T16:02:29;10.48;;;9.77;;
40058;SDS011;25763;49.972;8.568;2022-12-10T16:05:00;10.32;;;9.63;;
40058;SDS011;25763;49.972;8.568;2022-12-10T16:07:26;9.95;;;9.25;;
40058;SDS011;25763;49.972;8.568;2022-12-10T16:09:51;8.93;;;8.32;;
40058;SDS011;25763;49.972;8.568;2022-12-10T16:12:17;9.55;;;8.95;;
40058;SDS011;25763;49.972;8.568;2022-12-10T16:14:47;9.52;;;8.82;;
40058;SDS011;25763;49.972;8.568;2022-12-10T16:17:16;8.82;;;8.23;;
40058;SDS011;25763;49.972;8.568;2022-12-10T16:19:42;9.30;;;8.70;;
40058;SDS011;25763;49.972;8.568;2022-12-10T16:22:08;9.40;;;8.80;;
40058;SDS011;25763;49.972;8.568;2022-12-10T16:24:34;9.55;;;8.95;;
40058;SDS011;25763;49.972;8.568;2022-12-10T16:26:59;10.18;;;9.18;;
40058;SDS011;25763;49.972;8.568;2022-12-10T16:29:24;9.27;;;8.68;;
40058;SDS011;25763;49.972;8.568;2022-12-10T16:31:50;9.00;;;8.35;;
40058;SDS011;25763;49.972;8.568;2022-12-10T16:34:15;8.73;;;8.13;;
40058;SDS011;25763;49.972;8.568;2022-12-10T16:36:41;10.23;;;9.25;;
40058;SDS011;25763;49.972;8.568;2022-12-10T16:39:06;9.45;;;8.70;;
40058;SDS011;25763;49.972;8.568;2022-12-10T16:41:32;10.02;;;9.23;;
40058;SDS011;25763;49.972;8.568;2022-12-10T16:43:57;9.18;;;8.52;;
40058;SDS011;25763;49.972;8.568;2022-12-10T16:46:23;8.65;;;8.02;;
40058;SDS011;25763;49.972;8.568;2022-12-10T16:48:48;8.10;;;7.60;;
40058;SDS011;25763;49.972;8.568;2022-12-10T16:51:24;8.65;;;8.05;;
40058;SDS011;25763;49.972;8.568;2022-12-10T16:53:53;8.85;;;8.15;;
40058;SDS011;25763;49.972;8.568;2022-12-10T16:56:19;8.20;;;7.68;;
40058;SDS011;25763;49.972;8.568;2022-12-10T16:58:44;9.43;;;8.73;;
40058;SDS011;25763;49.972;8.568;2022-12-10T17:01:13;9.65;;;8.95;;
40058;SDS011;25763;49.972;8.568;2022-12-10T17:03:45;8.65;;;7.95;;
40058;SDS011;25763;49.972;8.568;2022-12-10T17:06:11;8.68;;;8.07;;
40058;SDS011;25763;49.972;8.568;2022-12-10T17:08:37;9.02;;;8.40;;
40058;SDS011;25763;49.972;8.568;2022-12-10T17:11:11;9.35;;;8.65;;
40058;SDS011;25763;49.972;8.568;2022-12-10T17:13:56;9.63;;;8.90;;
40058;SDS011;25763;49.972;8.568;2022-12-10T17:16:22;8.32;;;7.60;;
40058;SDS011;25763;49.972;8.568;2022-12-10T17:18:47;10.13;;;9.43;;
40058;SDS011;25763;49.972;8.568;2022-12-10T17:21:13;9.60;;;8.90;;
40058;SDS011;25763;49.972;8.568;2022-12-10T17:23:38;9.63;;;8.85;;
40058;SDS011;25763;49.972;8.568;2022-12-10T17:26:04;9.60;;;8.85;;
40058;SDS011;25763;49.972;8.568;2022-12-10T17:28:29;9.48;;;8.77;;
40058;SDS011;25763;49.972;8.568;2022-12-10T17:30:55;10.88;;;10.02;;
40058;SDS011;25763;49.972;8.568;2022-12-10T17:33:22;9.13;;;8.25;;
40058;SDS011;25763;49.972;8.568;2022-12-10T17:35:48;10.95;;;10.05;;
40058;SDS011;25763;49.972;8.568;2022-12-10T17:38:16;9.85;;;9.15;;